createdAt,value
2023-03-26T00:00:58.530Z,11.60
2023-03-26T00:03:31.873Z,12.73
2023-03-26T00:06:13.587Z,12.98
2023-03-26T00:08:47.067Z,13.45
2023-03-26T00:11:21.722Z,13.33
2023-03-26T00:13:56.836Z,13.03
2023-03-26T00:16:32.291Z,13.25
2023-03-26T00:19:04.745Z,13.78
2023-03-26T00:21:38.173Z,13.80
2023-03-26T00:24:16.437Z,13.03
2023-03-26T00:26:52.279Z,13.25
2023-03-26T00:31:57.048Z,14.38
2023-03-26T00:34:29.912Z,14.45
2023-03-26T00:37:03.078Z,14.43
2023-03-26T00:39:37.483Z,14.80
2023-03-26T00:42:10.150Z,15.58
2023-03-26T00:44:42.582Z,14.45
2023-03-26T00:47:16.092Z,14.38
2023-03-26T00:49:48.983Z,15.78
2023-03-26T00:52:22.176Z,19.55
2023-03-26T00:54:55.435Z,18.73
2023-03-26T00:57:35.858Z,19.27
2023-03-26T01:00:11.379Z,19.30
2023-03-26T01:02:45.476Z,19.87
2023-03-26T01:05:43.069Z,20.63
2023-03-26T01:08:32.557Z,19.67
2023-03-26T01:11:12.439Z,18.92
2023-03-26T01:14:01.677Z,18.92
2023-03-26T01:16:50.167Z,18.27
2023-03-26T01:20:00.427Z,17.27
2023-03-26T01:22:34.673Z,15.58
2023-03-26T01:25:09.727Z,15.98
2023-03-26T01:27:56.609Z,17.70
2023-03-26T01:31:00.241Z,14.63
2023-03-26T01:33:40.271Z,14.23
2023-03-26T01:36:38.660Z,13.58
2023-03-26T01:39:18.028Z,13.95
2023-03-26T01:41:54.984Z,13.85
2023-03-26T01:44:44.998Z,13.22
2023-03-26T01:47:17.646Z,13.72
2023-03-26T01:49:50.580Z,12.40
2023-03-26T01:52:26.325Z,12.93
2023-03-26T01:54:59.876Z,12.35
2023-03-26T01:58:03.505Z,12.30
2023-03-26T02:00:56.958Z,11.63
2023-03-26T02:03:45.191Z,10.40
2023-03-26T02:06:43.064Z,10.00
2023-03-26T02:09:22.540Z,8.50
2023-03-26T02:11:55.441Z,8.13
2023-03-26T02:14:31.976Z,7.65
2023-03-26T02:17:04.415Z,7.53
2023-03-26T02:19:40.783Z,6.30
2023-03-26T02:22:15.779Z,4.85
2023-03-26T02:24:50.031Z,4.15
2023-03-26T02:27:22.987Z,3.50
2023-03-26T02:29:55.912Z,2.70
2023-03-26T02:32:29.516Z,2.00
2023-03-26T02:35:03.113Z,2.00
2023-03-26T02:37:36.315Z,1.80
2023-03-26T02:40:11.865Z,1.60
2023-03-26T02:42:47.500Z,1.22
2023-03-26T02:45:20.488Z,1.55
2023-03-26T02:48:11.781Z,1.10
2023-03-26T02:50:50.333Z,1.30
2023-03-26T02:53:26.450Z,1.45
2023-03-26T02:56:01.330Z,1.10
2023-03-26T02:58:35.955Z,1.20
2023-03-26T03:01:09.310Z,1.40
2023-03-26T03:03:44.736Z,1.40
2023-03-26T03:06:19.275Z,1.35
2023-03-26T03:08:55.733Z,1.05
2023-03-26T03:12:02.069Z,1.10
2023-03-26T03:14:36.738Z,0.88
2023-03-26T03:17:09.364Z,1.10
2023-03-26T03:19:41.953Z,1.25
2023-03-26T03:22:15.136Z,1.40
2023-03-26T03:24:48.500Z,1.40
2023-03-26T03:27:22.769Z,1.80
2023-03-26T03:29:59.265Z,1.20
2023-03-26T03:32:50.799Z,1.62
2023-03-26T03:38:00.537Z,1.30
2023-03-26T03:40:34.066Z,1.40
2023-03-26T03:43:06.658Z,1.00
2023-03-26T03:48:15.395Z,1.10
2023-03-26T03:50:50.176Z,1.30
2023-03-26T03:53:30.873Z,1.60
2023-03-26T03:58:41.257Z,1.32
2023-03-26T04:01:17.073Z,1.47
2023-03-26T04:03:58.088Z,1.60
2023-03-26T04:06:32.655Z,1.70
2023-03-26T04:09:05.521Z,1.50
2023-03-26T04:11:39.079Z,1.65
2023-03-26T04:14:17.690Z,1.67
2023-03-26T04:16:55.061Z,1.52
2023-03-26T04:19:28.851Z,1.95
2023-03-26T04:22:02.432Z,1.60
2023-03-26T04:24:41.109Z,1.77
2023-03-26T04:27:33.109Z,2.02
2023-03-26T04:30:15.860Z,1.85
2023-03-26T04:32:50.207Z,2.10
2023-03-26T04:35:23.934Z,2.55
2023-03-26T04:37:58.745Z,2.40
2023-03-26T04:43:19.283Z,1.90
2023-03-26T04:46:11.166Z,2.67
2023-03-26T04:48:46.317Z,2.05
2023-03-26T04:51:22.034Z,2.00
2023-03-26T04:54:01.205Z,1.98
2023-03-26T04:57:00.243Z,1.98
2023-03-26T04:59:37.384Z,2.30
2023-03-26T05:02:14.236Z,2.05
2023-03-26T05:05:00.197Z,2.00
2023-03-26T05:07:34.024Z,2.00
2023-03-26T05:10:08.562Z,2.00
2023-03-26T05:12:44.372Z,1.80
2023-03-26T05:15:21.757Z,2.33
2023-03-26T05:18:03.861Z,2.12
2023-03-26T05:20:38.947Z,2.12
2023-03-26T05:23:13.059Z,2.15
2023-03-26T05:25:48.015Z,1.85
2023-03-26T05:28:24.050Z,1.80
2023-03-26T05:31:02.752Z,1.70
2023-03-26T05:33:37.704Z,1.85
2023-03-26T05:36:21.277Z,1.90
2023-03-26T05:38:56.749Z,1.98
2023-03-26T05:41:37.342Z,2.15
2023-03-26T05:44:10.435Z,2.00
2023-03-26T05:46:43.636Z,1.90
2023-03-26T05:49:18.088Z,2.05
2023-03-26T05:51:52.740Z,2.10
2023-03-26T05:54:44.873Z,1.85
2023-03-26T05:57:36.253Z,2.30
2023-03-26T06:00:27.828Z,2.20
2023-03-26T06:03:01.673Z,2.58
2023-03-26T06:05:54.357Z,2.80
2023-03-26T06:09:01.024Z,2.10
2023-03-26T06:11:25.836Z,2.60
2023-03-26T06:13:59.471Z,2.50
2023-03-26T06:16:32.823Z,2.27
2023-03-26T06:19:07.911Z,2.20
2023-03-26T06:21:46.756Z,2.90
2023-03-26T06:27:30.748Z,2.42
2023-03-26T06:30:21.825Z,2.10
2023-03-26T06:33:12.096Z,2.45
2023-03-26T06:35:47.586Z,2.70
2023-03-26T06:38:20.785Z,2.72
2023-03-26T06:40:54.911Z,2.70
2023-03-26T06:43:32.680Z,2.62
2023-03-26T06:46:21.512Z,2.42
2023-03-26T06:49:02.069Z,1.87
2023-03-26T06:51:52.799Z,2.08
2023-03-26T06:54:31.326Z,2.60
2023-03-26T06:57:11.955Z,2.33
2023-03-26T07:00:02.461Z,1.90
2023-03-26T07:02:53.661Z,1.92
2023-03-26T07:05:44.082Z,3.00
2023-03-26T07:08:35.204Z,1.70
2023-03-26T07:11:25.544Z,2.22
2023-03-26T07:14:16.603Z,2.05
2023-03-26T07:16:54.099Z,2.27
2023-03-26T07:19:47.243Z,2.22
2023-03-26T07:22:43.821Z,2.05
2023-03-26T07:25:21.477Z,1.67
2023-03-26T07:28:20.686Z,2.67
2023-03-26T07:31:43.350Z,3.30
2023-03-26T07:34:56.482Z,6.55
2023-03-26T07:37:53.363Z,3.17
2023-03-26T07:41:31.677Z,2.70
2023-03-26T07:44:48.605Z,2.15
2023-03-26T07:47:36.069Z,2.10
2023-03-26T07:50:22.195Z,1.85
2023-03-26T07:53:09.994Z,25.45
2023-03-26T07:56:30.874Z,3.65
2023-03-26T07:59:31.339Z,9.10
2023-03-26T08:02:41.589Z,2.47
2023-03-26T08:06:03.539Z,2.50
2023-03-26T08:09:10.066Z,2.05
2023-03-26T08:12:27.818Z,2.62
2023-03-26T08:15:34.860Z,2.50
2023-03-26T08:18:49.394Z,2.33
2023-03-26T08:21:39.889Z,2.50
2023-03-26T08:25:10.584Z,2.25
2023-03-26T08:28:08.632Z,2.30
2023-03-26T08:30:42.022Z,2.55
2023-03-26T08:33:20.843Z,2.62
2023-03-26T08:35:53.979Z,2.50
2023-03-26T08:38:26.869Z,3.00
2023-03-26T08:41:15.668Z,2.52
2023-03-26T08:44:17.122Z,2.55
2023-03-26T08:47:30.927Z,3.05
2023-03-26T08:50:43.093Z,3.25
2023-03-26T08:53:44.934Z,3.12
2023-03-26T08:56:35.283Z,3.05
2023-03-26T08:59:32.813Z,3.52
2023-03-26T09:02:50.771Z,3.90
2023-03-26T09:06:01.448Z,3.52
2023-03-26T09:09:00.453Z,4.40
2023-03-26T09:11:55.092Z,4.72
2023-03-26T09:14:53.653Z,5.45
2023-03-26T09:17:43.050Z,5.00
2023-03-26T09:20:39.271Z,5.62
2023-03-26T09:23:48.685Z,6.12
2023-03-26T09:26:51.454Z,5.87
2023-03-26T09:29:40.721Z,6.12
2023-03-26T09:32:58.754Z,6.25
2023-03-26T09:36:12.278Z,6.15
2023-03-26T09:39:13.219Z,6.05
2023-03-26T09:42:13.127Z,5.75
2023-03-26T09:45:22.799Z,6.65
2023-03-26T09:48:09.292Z,6.58
2023-03-26T09:54:35.461Z,7.92
2023-03-26T09:57:29.279Z,8.15
2023-03-26T10:00:43.868Z,9.05
2023-03-26T10:03:42.729Z,7.62
2023-03-26T10:06:44.750Z,7.55
2023-03-26T10:09:27.972Z,8.28
2023-03-26T10:12:23.329Z,7.40
2023-03-26T10:15:29.600Z,8.28
2023-03-26T10:18:34.566Z,8.40
2023-03-26T10:21:31.755Z,9.65
2023-03-26T10:24:34.774Z,7.92
2023-03-26T10:27:13.638Z,8.08
2023-03-26T10:30:18.221Z,9.38
2023-03-26T10:33:01.912Z,7.97
2023-03-26T10:36:14.348Z,9.50
2023-03-26T10:39:03.582Z,9.00
2023-03-26T10:42:14.478Z,8.68
2023-03-26T10:45:26.275Z,12.50
2023-03-26T10:48:31.391Z,8.70
2023-03-26T10:51:50.717Z,9.68
2023-03-26T10:54:45.852Z,9.85
2023-03-26T10:57:26.695Z,9.20
2023-03-26T11:00:23.514Z,9.18
2023-03-26T11:03:33.216Z,9.13
2023-03-26T11:06:46.023Z,8.40
2023-03-26T11:09:47.571Z,8.25
2023-03-26T11:12:57.300Z,7.75
2023-03-26T11:15:51.746Z,8.33
2023-03-26T11:18:49.103Z,7.20
2023-03-26T11:21:48.054Z,8.43
2023-03-26T11:25:05.084Z,9.35
2023-03-26T11:28:00.120Z,7.85
2023-03-26T11:31:17.370Z,6.95
2023-03-26T11:33:56.905Z,7.42
2023-03-26T11:36:32.923Z,7.08
2023-03-26T11:39:09.877Z,9.13
2023-03-26T11:41:42.493Z,7.40
2023-03-26T11:44:32.469Z,7.28
2023-03-26T11:47:10.460Z,6.80
2023-03-26T11:49:45.522Z,6.83
2023-03-26T11:52:18.884Z,6.78
2023-03-26T11:54:51.797Z,5.97
2023-03-26T11:57:27.921Z,6.58
2023-03-26T12:00:17.812Z,5.70
2023-03-26T12:02:51.083Z,6.00
2023-03-26T12:05:27.519Z,5.45
2023-03-26T12:08:11.403Z,5.62
2023-03-26T12:10:44.092Z,5.15
2023-03-26T12:13:36.706Z,4.72
2023-03-26T12:16:34.685Z,4.45
2023-03-26T12:19:12.046Z,4.10
2023-03-26T12:21:52.863Z,4.17
2023-03-26T12:24:36.452Z,4.20
2023-03-26T12:27:30.004Z,4.62
2023-03-26T12:30:27.581Z,3.77
2023-03-26T12:33:04.402Z,3.58
2023-03-26T12:35:37.288Z,7.28
2023-03-26T12:38:34.175Z,5.40
2023-03-26T12:44:43.391Z,3.80
2023-03-26T12:44:55.536Z,4.95
2023-03-26T12:47:58.751Z,3.20
2023-03-26T12:49:11.652Z,2.85
2023-03-26T12:52:17.923Z,3.25
2023-03-26T12:55:04.046Z,3.87
2023-03-26T12:57:41.375Z,3.37
2023-03-26T13:00:44.761Z,3.45
2023-03-26T13:04:11.212Z,2.70
2023-03-26T13:07:00.674Z,2.37
2023-03-26T13:09:44.609Z,16.67
2023-03-26T13:12:44.072Z,5.87
2023-03-26T13:15:52.649Z,3.70
2023-03-26T13:18:51.391Z,2.40
2023-03-26T13:21:50.292Z,2.90
2023-03-26T13:24:46.084Z,3.10
2023-03-26T13:27:36.699Z,2.70
2023-03-26T13:30:35.628Z,3.20
2023-03-26T13:33:28.142Z,3.60
2023-03-26T13:36:22.627Z,2.30
2023-03-26T13:39:13.214Z,2.10
2023-03-26T13:41:59.715Z,2.10
2023-03-26T13:45:04.661Z,1.98
2023-03-26T13:47:32.096Z,2.17
2023-03-26T13:50:30.105Z,1.98
2023-03-26T13:53:11.017Z,2.20
2023-03-26T13:55:50.548Z,2.05
2023-03-26T13:58:39.136Z,2.27
2023-03-26T14:01:32.027Z,2.37
2023-03-26T14:04:19.894Z,2.33
2023-03-26T14:07:06.622Z,3.72
2023-03-26T14:09:58.771Z,2.87
2023-03-26T14:13:01.744Z,3.05
2023-03-26T14:15:50.683Z,2.92
2023-03-26T14:18:45.243Z,3.00
2023-03-26T14:21:37.314Z,2.90
2023-03-26T14:24:32.568Z,3.12
2023-03-26T14:27:35.788Z,3.52
2023-03-26T14:30:53.632Z,3.62
2023-03-26T14:33:34.513Z,4.25
2023-03-26T14:36:37.850Z,2.90
2023-03-26T14:39:29.334Z,2.90
2023-03-26T14:42:15.776Z,3.55
2023-03-26T14:45:10.768Z,2.17
2023-03-26T14:48:18.048Z,2.58
2023-03-26T14:51:27.211Z,2.02
2023-03-26T14:54:07.258Z,3.30
2023-03-26T14:57:11.472Z,2.37
2023-03-26T15:00:11.595Z,2.47
2023-03-26T15:03:15.116Z,20.32
2023-03-26T15:05:53.190Z,3.72
2023-03-26T15:08:49.030Z,3.20
2023-03-26T15:11:51.079Z,3.40
2023-03-26T15:14:53.747Z,3.55
2023-03-26T15:17:54.744Z,3.15
2023-03-26T15:20:59.412Z,3.60
2023-03-26T15:24:16.261Z,3.50
2023-03-26T15:27:31.288Z,3.72
2023-03-26T15:30:20.230Z,3.63
2023-03-26T15:33:29.316Z,3.77
2023-03-26T15:36:24.863Z,4.10
2023-03-26T15:39:15.291Z,3.72
2023-03-26T15:42:16.059Z,2.92
2023-03-26T15:45:26.879Z,3.50
2023-03-26T15:48:15.920Z,3.80
2023-03-26T15:51:28.539Z,3.05
2023-03-26T15:54:08.882Z,3.22
2023-03-26T15:56:58.404Z,3.58
2023-03-26T15:59:59.790Z,2.90
2023-03-26T16:02:48.272Z,3.92
2023-03-26T16:05:33.825Z,3.50
2023-03-26T16:08:31.660Z,2.60
2023-03-26T16:11:06.788Z,2.92
2023-03-26T16:13:44.638Z,3.02
2023-03-26T16:16:24.130Z,3.40
2023-03-26T16:19:01.417Z,3.50
2023-03-26T16:21:40.341Z,3.40
2023-03-26T16:24:20.796Z,3.40
2023-03-26T16:27:06.397Z,3.55
2023-03-26T16:30:20.713Z,3.77
2023-03-26T16:33:15.712Z,3.90
2023-03-26T16:36:08.519Z,4.10
2023-03-26T16:39:03.820Z,3.65
2023-03-26T16:45:03.067Z,5.40
2023-03-26T16:51:27.897Z,7.13
2023-03-26T16:54:32.360Z,3.77
2023-03-26T16:57:38.682Z,3.37
2023-03-26T17:00:28.696Z,3.20
2023-03-26T17:06:53.445Z,3.15
2023-03-26T17:10:02.610Z,3.85
2023-03-26T17:13:01.841Z,5.22
2023-03-26T17:16:01.406Z,3.25
2023-03-26T17:19:04.485Z,3.30
2023-03-26T17:22:03.862Z,2.77
2023-03-26T17:24:49.996Z,3.83
2023-03-26T17:28:09.427Z,3.10
2023-03-26T17:31:04.574Z,3.17
2023-03-26T17:33:39.761Z,2.90
2023-03-26T17:36:24.277Z,3.02
2023-03-26T17:39:00.993Z,3.47
2023-03-26T17:42:10.381Z,9.50
2023-03-26T17:44:56.758Z,7.17
2023-03-26T17:47:48.480Z,4.50
2023-03-26T17:50:46.406Z,4.10
2023-03-26T17:53:31.115Z,4.80
2023-03-26T17:56:07.396Z,4.58
2023-03-26T17:58:48.779Z,3.83
2023-03-26T18:01:37.381Z,4.12
2023-03-26T18:04:20.441Z,3.70
2023-03-26T18:07:29.805Z,3.50
2023-03-26T18:10:40.613Z,3.80
2023-03-26T18:13:43.786Z,4.20
2023-03-26T18:16:24.560Z,4.60
2023-03-26T18:19:03.097Z,4.80
2023-03-26T18:21:40.420Z,4.78
2023-03-26T18:24:31.559Z,5.10
2023-03-26T18:27:12.324Z,5.92
2023-03-26T18:30:03.543Z,6.53
2023-03-26T18:35:23.282Z,6.87
2023-03-26T18:38:36.439Z,7.00
2023-03-26T18:43:44.525Z,7.78
2023-03-26T18:46:16.851Z,8.38
2023-03-26T18:48:50.761Z,8.55
2023-03-26T18:51:23.549Z,9.03
2023-03-26T18:53:59.611Z,9.18
2023-03-26T18:56:38.464Z,7.50
2023-03-26T18:59:32.219Z,7.17
2023-03-26T19:02:31.382Z,7.33
2023-03-26T19:05:04.274Z,6.45
2023-03-26T19:07:38.082Z,6.67
2023-03-26T19:13:03.637Z,5.78
2023-03-26T19:15:36.719Z,5.53
2023-03-26T19:18:12.890Z,6.05
2023-03-26T19:20:59.665Z,5.85
2023-03-26T19:23:39.425Z,6.03
2023-03-26T19:26:12.170Z,5.97
2023-03-26T19:28:53.553Z,5.58
2023-03-26T19:31:30.472Z,7.25
2023-03-26T19:34:35.064Z,6.05
2023-03-26T19:37:30.283Z,7.15
2023-03-26T19:42:43.830Z,7.17
2023-03-26T19:45:21.797Z,7.22
2023-03-26T19:48:03.946Z,6.35
2023-03-26T19:50:32.219Z,6.65
2023-03-26T19:53:23.328Z,6.25
2023-03-26T19:56:15.431Z,6.12
2023-03-26T19:58:48.819Z,6.25
2023-03-26T20:01:27.373Z,6.73
2023-03-26T20:04:06.812Z,5.40
2023-03-26T20:06:43.698Z,5.70
2023-03-26T20:09:16.579Z,6.25
2023-03-26T20:11:51.262Z,6.03
2023-03-26T20:14:26.406Z,6.50
2023-03-26T20:16:59.326Z,6.03
2023-03-26T20:19:32.253Z,6.33
2023-03-26T20:22:05.962Z,6.10
2023-03-26T20:24:40.244Z,5.60
2023-03-26T20:27:14.365Z,6.80
2023-03-26T20:32:26.302Z,6.00
2023-03-26T20:34:57.847Z,5.60
2023-03-26T20:37:30.626Z,6.00
2023-03-26T20:40:04.642Z,5.33
2023-03-26T20:42:37.446Z,5.50
2023-03-26T20:45:26.546Z,5.30
2023-03-26T20:47:59.696Z,5.67
2023-03-26T20:50:35.788Z,5.20
2023-03-26T20:53:07.189Z,5.75
2023-03-26T20:55:41.538Z,5.03
2023-03-26T20:58:32.039Z,5.25
2023-03-26T21:01:02.490Z,4.75
2023-03-26T21:03:35.803Z,4.87
2023-03-26T21:06:13.573Z,4.97
2023-03-26T21:08:48.124Z,4.95
2023-03-26T21:11:52.548Z,4.67
2023-03-26T21:14:44.236Z,4.75
2023-03-26T21:17:19.916Z,4.67
2023-03-26T21:19:53.381Z,4.70
2023-03-26T21:22:40.720Z,4.87
2023-03-26T21:25:24.433Z,4.25
2023-03-26T21:28:39.719Z,4.22
2023-03-26T21:31:07.938Z,4.53
2023-03-26T21:33:41.280Z,4.70
2023-03-26T21:36:14.346Z,4.15
2023-03-26T21:38:48.285Z,5.03
2023-03-26T21:41:49.140Z,4.33
2023-03-26T21:44:23.638Z,4.00
2023-03-26T21:46:56.291Z,4.20
2023-03-26T21:49:29.940Z,4.75
2023-03-26T21:52:02.761Z,3.80
2023-03-26T21:54:35.552Z,4.40
2023-03-26T21:57:49.481Z,3.90
2023-03-26T22:00:33.580Z,3.62
2023-03-26T22:03:34.402Z,4.00
2023-03-26T22:06:20.352Z,3.47
2023-03-26T22:08:53.593Z,3.50
2023-03-26T22:11:26.298Z,3.80
2023-03-26T22:13:59.503Z,3.60
2023-03-26T22:16:32.457Z,3.47
2023-03-26T22:19:06.393Z,3.72
2023-03-26T22:21:39.047Z,3.87
2023-03-26T22:24:11.690Z,3.90
2023-03-26T22:26:45.250Z,4.08
2023-03-26T22:29:21.515Z,4.05
2023-03-26T22:31:54.043Z,3.77
2023-03-26T22:34:26.396Z,3.80
2023-03-26T22:36:58.946Z,3.77
2023-03-26T22:39:32.152Z,4.15
2023-03-26T22:44:58.194Z,4.35
2023-03-26T22:47:32.447Z,3.98
2023-03-26T22:50:15.896Z,3.55
2023-03-26T22:52:49.526Z,3.77
2023-03-26T22:55:29.044Z,3.77
2023-03-26T22:57:57.929Z,3.58
2023-03-26T23:00:30.910Z,3.85
2023-03-26T23:03:04.658Z,4.00
2023-03-26T23:05:37.995Z,3.92
2023-03-26T23:08:11.956Z,4.08
2023-03-26T23:10:44.423Z,4.60
2023-03-26T23:13:17.709Z,4.97
2023-03-26T23:15:53.082Z,4.33
2023-03-26T23:18:25.487Z,4.05
2023-03-26T23:20:58.848Z,4.85
2023-03-26T23:23:34.476Z,4.35
2023-03-26T23:26:08.696Z,5.25
2023-03-26T23:28:42.402Z,4.50
2023-03-26T23:31:14.978Z,4.03
2023-03-26T23:33:47.745Z,4.00
2023-03-26T23:36:21.283Z,4.20
2023-03-26T23:38:54.599Z,4.42
2023-03-26T23:41:27.831Z,4.20
2023-03-26T23:44:01.685Z,4.28
2023-03-26T23:46:34.860Z,3.70
2023-03-26T23:49:07.502Z,3.52
2023-03-26T23:51:42.403Z,4.70
2023-03-26T23:54:15.419Z,4.20
2023-03-26T23:56:49.407Z,4.30
2023-03-26T23:59:23.304Z,3.42
